Time;durP1;ratioP1;P1;durP2;ratioP2;P2;SDS_P1;SDS_P2;PMS_P1;PMS_P2;Temp;Humidity;BMP_temperature;BMP_pressure;BME280_temperature;BME280_humidity;BME280_pressure;Samples;Min_cycle;Max_cycle;Signal;HPM_P1;HPM_P2
2021/07/31 00:00:01;;;;;;;6.55;2.30;;;20.10;72.00;;;;;;6248562;28;20396;-76
2021/07/31 00:03:03;;;;;;;3.72;2.90;;;20.10;72.80;;;;;;6248765;28;20092;-76
2021/07/31 00:06:06;;;;;;;3.58;2.08;;;20.00;72.60;;;;;;6249090;28;20140;-78
2021/07/31 00:09:08;;;;;;;7.53;2.05;;;19.90;72.80;;;;;;6248292;28;20049;-77
2021/07/31 00:12:10;;;;;;;4.53;2.08;;;19.90;73.10;;;;;;6248415;28;20144;-77
2021/07/31 00:15:13;;;;;;;4.05;2.45;;;19.80;73.40;;;;;;6248452;28;20049;-76
2021/07/31 00:18:15;;;;;;;4.82;2.20;;;19.80;73.80;;;;;;6248565;28;20046;-77
2021/07/31 00:21:16;;;;;;;4.43;2.47;;;19.70;74.00;;;;;;6248011;28;20084;-76
2021/07/31 00:24:18;;;;;;;5.88;2.60;;;19.60;74.20;;;;;;6248135;28;20056;-77
2021/07/31 00:27:20;;;;;;;4.60;2.50;;;19.60;74.30;;;;;;6247684;28;20509;-77
2021/07/31 00:30:25;;;;;;;2.08;1.88;;;19.50;74.80;;;;;;6248194;28;20176;-77
2021/07/31 00:33:27;;;;;;;4.47;2.50;;;19.40;75.10;;;;;;6248350;28;20475;-77
2021/07/31 00:36:28;;;;;;;2.92;2.53;;;19.30;75.20;;;;;;6247695;28;20053;-77
2021/07/31 00:39:34;;;;;;;3.97;2.78;;;19.20;75.50;;;;;;6247453;28;20041;-77
2021/07/31 00:42:38;;;;;;;4.88;2.00;;;19.20;75.60;;;;;;6247997;28;20042;-77
2021/07/31 00:45:42;;;;;;;6.25;2.47;;;19.20;76.10;;;;;;6247765;28;20471;-77
2021/07/31 00:48:44;;;;;;;7.03;2.72;;;19.10;76.20;;;;;;6246304;28;20037;-76
2021/07/31 00:51:46;;;;;;;5.57;3.20;;;19.00;76.40;;;;;;6246398;28;20119;-76
2021/07/31 00:54:48;;;;;;;3.63;1.92;;;19.00;77.10;;;;;;6247460;28;20095;-76
2021/07/31 00:57:51;;;;;;;4.13;2.35;;;18.90;77.50;;;;;;6247232;28;20176;-77
2021/07/31 01:00:54;;;;;;;4.18;2.03;;;18.80;77.10;;;;;;6247020;28;20507;-77
2021/07/31 01:03:56;;;;;;;2.97;2.10;;;18.80;76.50;;;;;;6247328;28;20069;-78
2021/07/31 01:06:58;;;;;;;2.92;2.08;;;18.70;76.10;;;;;;6246724;28;20530;-77
2021/07/31 01:10:00;;;;;;;10.20;1.90;;;18.80;75.90;;;;;;6247447;28;20503;-77
2021/07/31 01:13:04;;;;;;;4.25;1.63;;;18.80;76.00;;;;;;6247000;28;20179;-77
2021/07/31 01:16:08;;;;;;;5.32;2.00;;;18.80;74.20;;;;;;6246763;28;20046;-77
2021/07/31 01:19:10;;;;;;;11.18;2.25;;;18.80;73.60;;;;;;6246950;28;20064;-77
2021/07/31 01:22:13;;;;;;;2.30;1.52;;;18.80;72.90;;;;;;6247527;28;20135;-77
2021/07/31 01:25:15;;;;;;;4.45;1.77;;;18.80;71.90;;;;;;6246739;28;20099;-78
2021/07/31 01:28:17;;;;;;;4.22;2.25;;;18.80;71.90;;;;;;6246406;28;20176;-77
2021/07/31 01:31:19;;;;;;;2.70;1.55;;;18.70;72.10;;;;;;6246877;28;20043;-76
2021/07/31 01:34:21;;;;;;;8.25;2.55;;;18.80;71.50;;;;;;6246653;28;20053;-77
2021/07/31 01:37:24;;;;;;;8.60;2.25;;;18.80;72.20;;;;;;6247015;28;20053;-77
2021/07/31 01:40:26;;;;;;;3.38;1.33;;;18.90;71.80;;;;;;6247492;28;20512;-77
2021/07/31 01:43:27;;;;;;;10.75;1.77;;;18.90;71.00;;;;;;6247020;28;20050;-77
2021/07/31 01:46:29;;;;;;;4.65;1.80;;;18.80;70.90;;;;;;6246128;28;20080;-77
2021/07/31 01:49:31;;;;;;;3.63;2.15;;;18.80;71.30;;;;;;6246985;28;20127;-77
2021/07/31 01:52:34;;;;;;;1.90;1.17;;;18.80;71.10;;;;;;6246364;28;20049;-77
2021/07/31 01:55:37;;;;;;;2.10;1.42;;;18.70;70.90;;;;;;6246135;28;20049;-77
2021/07/31 01:58:38;;;;;;;5.97;2.35;;;18.70;70.80;;;;;;6246114;28;20798;-77
2021/07/31 02:01:40;;;;;;;1.92;1.08;;;18.70;70.90;;;;;;6246769;28;20084;-76
2021/07/31 02:04:42;;;;;;;4.68;1.63;;;18.70;70.80;;;;;;6246155;28;20152;-77
2021/07/31 02:07:45;;;;;;;1.45;1.25;;;18.70;71.30;;;;;;6248617;28;20179;-77
2021/07/31 02:10:47;;;;;;;2.92;1.65;;;18.60;71.30;;;;;;6251321;28;20128;-77
2021/07/31 02:13:49;;;;;;;2.58;1.50;;;18.60;71.20;;;;;;6251962;28;20144;-77
2021/07/31 02:16:50;;;;;;;2.65;1.40;;;18.50;70.90;;;;;;6250791;28;20115;-77
2021/07/31 02:19:52;;;;;;;3.78;1.60;;;18.50;71.10;;;;;;6251005;28;20041;-77
2021/07/31 02:22:55;;;;;;;5.45;1.60;;;18.50;71.10;;;;;;6251154;28;20041;-77
2021/07/31 02:25:58;;;;;;;3.70;1.50;;;18.40;71.00;;;;;;6251478;28;20077;-77
2021/07/31 02:29:00;;;;;;;3.13;1.95;;;18.30;71.10;;;;;;6250593;28;20177;-77
2021/07/31 02:32:02;;;;;;;5.65;1.50;;;18.30;71.60;;;;;;6250808;28;20041;-78
2021/07/31 02:35:04;;;;;;;6.05;1.70;;;18.20;72.10;;;;;;6250987;28;20112;-76
2021/07/31 02:38:07;;;;;;;5.25;1.98;;;18.20;72.20;;;;;;6250946;28;20041;-78
2021/07/31 02:41:11;;;;;;;4.97;1.63;;;18.10;72.10;;;;;;6252839;22;20057;-76
2021/07/31 02:44:12;;;;;;;9.35;2.05;;;18.10;72.20;;;;;;6226639;28;20123;-75
2021/07/31 02:47:14;;;;;;;2.05;1.40;;;18.00;72.20;;;;;;6227387;28;20069;-76
2021/07/31 02:50:16;;;;;;;1.85;1.33;;;18.00;72.90;;;;;;6228383;28;20076;-75
2021/07/31 02:53:19;;;;;;;4.38;1.92;;;17.90;72.80;;;;;;6227572;28;20136;-76
2021/07/31 02:56:21;;;;;;;4.95;1.73;;;17.80;72.80;;;;;;6228420;28;20073;-75
2021/07/31 02:59:23;;;;;;;3.95;2.30;;;17.80;72.80;;;;;;6227432;28;20129;-76
2021/07/31 03:02:26;;;;;;;5.57;1.83;;;17.80;73.30;;;;;;6227646;28;20072;-76
2021/07/31 03:05:28;;;;;;;4.32;2.00;;;17.70;73.40;;;;;;6240064;28;20069;-76
2021/07/31 03:08:31;;;;;;;4.43;1.77;;;17.60;73.70;;;;;;6258830;28;20034;-75
2021/07/31 03:11:33;;;;;;;3.60;1.55;;;17.60;73.70;;;;;;6258921;28;20038;-75
2021/07/31 03:14:35;;;;;;;3.90;1.65;;;17.50;73.60;;;;;;6258634;28;20053;-75
2021/07/31 03:17:37;;;;;;;4.03;1.63;;;17.40;74.00;;;;;;6258026;28;20061;-76
2021/07/31 03:20:39;;;;;;;2.47;1.58;;;17.40;74.10;;;;;;6257624;28;20079;-76
2021/07/31 03:23:42;;;;;;;3.47;2.08;;;17.40;74.70;;;;;;6257779;28;20084;-75
2021/07/31 03:26:44;;;;;;;3.75;1.95;;;17.30;75.10;;;;;;6257503;28;20065;-76
2021/07/31 03:29:45;;;;;;;5.13;2.30;;;17.20;75.30;;;;;;6257527;28;20053;-76
2021/07/31 03:32:47;;;;;;;3.90;1.60;;;17.20;75.70;;;;;;6257409;28;20084;-75
2021/07/31 03:35:51;;;;;;;4.07;1.67;;;17.10;75.50;;;;;;6256397;28;20061;-75
2021/07/31 03:38:54;;;;;;;8.95;1.90;;;17.10;75.50;;;;;;6256615;28;20049;-75
2021/07/31 03:41:56;;;;;;;3.38;1.40;;;17.10;75.60;;;;;;6256733;28;20068;-75
2021/07/31 03:44:58;;;;;;;3.67;1.90;;;17.10;75.00;;;;;;6234119;28;20392;-74
2021/07/31 03:47:59;;;;;;;5.75;3.17;;;17.10;75.00;;;;;;6225801;28;20507;-74
2021/07/31 03:51:02;;;;;;;3.60;2.20;;;17.10;75.00;;;;;;6226080;28;20172;-74
2021/07/31 03:54:05;;;;;;;5.25;1.40;;;17.10;74.90;;;;;;6226639;28;20096;-74
2021/07/31 03:57:07;;;;;;;5.20;2.55;;;17.10;74.90;;;;;;6224914;28;20490;-75
2021/07/31 04:00:09;;;;;;;5.53;1.70;;;17.00;74.90;;;;;;6224479;28;20045;-75
2021/07/31 04:03:11;;;;;;;4.95;1.70;;;17.10;74.90;;;;;;6224381;28;20757;-75
2021/07/31 04:06:13;;;;;;;6.53;2.30;;;17.00;74.60;;;;;;6224680;28;20184;-75
2021/07/31 04:09:16;;;;;;;4.63;1.52;;;17.00;74.70;;;;;;6224208;28;20140;-75
2021/07/31 04:12:18;;;;;;;4.15;1.45;;;17.00;74.90;;;;;;6224233;28;20045;-75
2021/07/31 04:15:20;;;;;;;7.07;2.03;;;17.10;74.80;;;;;;6223851;28;20041;-74
2021/07/31 04:18:22;;;;;;;5.85;1.42;;;17.10;74.30;;;;;;6224012;28;20133;-75
2021/07/31 04:21:24;;;;;;;3.63;1.92;;;17.10;74.80;;;;;;6224658;28;20131;-75
2021/07/31 04:24:27;;;;;;;5.55;2.20;;;17.10;73.90;;;;;;6224061;28;20133;-75
2021/07/31 04:27:29;;;;;;;1.80;1.33;;;17.20;73.90;;;;;;6223547;28;20165;-74
2021/07/31 04:30:31;;;;;;;6.07;1.70;;;17.20;74.00;;;;;;6223201;28;20058;-74
2021/07/31 04:33:33;;;;;;;11.80;1.30;;;17.30;74.10;;;;;;6224475;28;20058;-74
2021/07/31 04:36:35;;;;;;;6.28;2.00;;;17.30;73.50;;;;;;6223499;28;20073;-74
2021/07/31 04:39:38;;;;;;;4.47;1.85;;;17.30;73.20;;;;;;6223474;28;20511;-74
2021/07/31 04:42:40;;;;;;;5.45;1.85;;;17.40;73.40;;;;;;6223251;28;20054;-74
2021/07/31 04:45:42;;;;;;;4.13;2.17;;;17.40;73.00;;;;;;6223690;28;20050;-75
2021/07/31 04:48:43;;;;;;;5.18;1.30;;;17.50;72.80;;;;;;6223191;28;20133;-75
2021/07/31 04:51:45;;;;;;;4.43;1.88;;;17.60;72.40;;;;;;6223160;28;20049;-75
2021/07/31 04:54:48;;;;;;;15.10;2.13;;;17.70;72.20;;;;;;6223348;28;20070;-75
2021/07/31 04:57:50;;;;;;;10.80;2.53;;;17.80;71.80;;;;;;6223416;28;20056;-75
2021/07/31 05:00:54;;;;;;;3.80;1.42;;;17.90;71.40;;;;;;6222933;28;20125;-75
2021/07/31 05:03:56;;;;;;;5.97;1.67;;;18.00;70.90;;;;;;6223137;28;20045;-75
2021/07/31 05:06:58;;;;;;;2.40;1.05;;;18.10;70.40;;;;;;6222628;28;20181;-75
2021/07/31 05:10:01;;;;;;;5.18;2.08;;;18.30;70.10;;;;;;6223012;28;20046;-74
2021/07/31 05:13:03;;;;;;;8.38;1.95;;;18.40;69.80;;;;;;6222762;28;20050;-75
2021/07/31 05:16:06;;;;;;;3.63;1.80;;;18.60;69.30;;;;;;6222436;28;20188;-75
2021/07/31 05:19:07;;;;;;;4.53;1.33;;;18.80;68.90;;;;;;6222764;28;20132;-76
2021/07/31 05:22:09;;;;;;;4.50;1.70;;;19.00;68.60;;;;;;6222864;28;20136;-75
2021/07/31 05:25:13;;;;;;;6.35;1.70;;;19.40;67.20;;;;;;6222357;28;20107;-75
2021/07/31 05:28:15;;;;;;;2.15;1.30;;;19.90;65.80;;;;;;6222230;28;20772;-75
2021/07/31 05:31:20;;;;;;;1.85;1.20;;;19.90;65.50;;;;;;6222512;28;20069;-75
2021/07/31 05:34:22;;;;;;;5.15;2.92;;;20.00;65.20;;;;;;6222134;28;20518;-75
2021/07/31 05:37:24;;;;;;;10.52;2.22;;;20.00;64.70;;;;;;6222412;28;20108;-75
2021/07/31 05:40:27;;;;;;;8.73;2.10;;;20.10;64.50;;;;;;6221702;28;20107;-75
2021/07/31 05:43:29;;;;;;;5.25;1.63;;;20.10;63.80;;;;;;6221800;28;20042;-75
2021/07/31 05:46:31;;;;;;;5.72;0.90;;;20.20;63.60;;;;;;6222031;28;20049;-75
2021/07/31 05:49:33;;;;;;;4.45;1.23;;;20.40;63.00;;;;;;6222425;28;20084;-75
2021/07/31 05:52:35;;;;;;;4.55;2.83;;;20.50;63.10;;;;;;6222234;28;20076;-75
2021/07/31 05:55:38;;;;;;;3.92;1.35;;;20.60;62.80;;;;;;6221380;28;20054;-75
2021/07/31 05:58:40;;;;;;;5.32;1.27;;;20.70;62.10;;;;;;6222164;28;20068;-75
2021/07/31 06:01:42;;;;;;;4.30;1.13;;;20.90;61.60;;;;;;6222047;28;20410;-75
2021/07/31 06:04:44;;;;;;;4.65;1.05;;;21.00;61.40;;;;;;6211118;28;20050;-75
2021/07/31 06:07:46;;;;;;;7.90;3.38;;;21.10;60.70;;;;;;6221413;28;20129;-75
2021/07/31 06:10:49;;;;;;;6.15;1.80;;;21.20;59.80;;;;;;6222012;28;20099;-75
2021/07/31 06:13:51;;;;;;;1.60;1.10;;;21.30;59.80;;;;;;6222080;28;20050;-74
2021/07/31 06:16:52;;;;;;;5.20;2.05;;;21.40;59.40;;;;;;6221455;28;20073;-75
2021/07/31 06:19:54;;;;;;;2.60;1.42;;;21.50;58.70;;;;;;6221727;28;20067;-75
2021/07/31 06:22:56;;;;;;;3.80;1.58;;;21.70;58.00;;;;;;6221574;28;20136;-75
2021/07/31 06:26:02;;;;;;;2.50;0.93;;;22.00;58.50;;;;;;6222131;28;20082;-75
2021/07/31 06:29:04;;;;;;;5.40;1.40;;;22.30;57.60;;;;;;6221961;28;20045;-75
2021/07/31 06:32:06;;;;;;;10.15;1.05;;;22.50;56.50;;;;;;6221588;28;20046;-75
2021/07/31 06:35:09;;;;;;;3.22;1.23;;;22.60;56.00;;;;;;6221702;28;20168;-74
2021/07/31 06:38:12;;;;;;;6.78;1.80;;;22.90;55.00;;;;;;6222047;28;20056;-75
2021/07/31 06:41:15;;;;;;;2.95;1.20;;;23.20;54.60;;;;;;6220983;28;20129;-75
2021/07/31 06:44:17;;;;;;;4.00;1.60;;;23.60;54.20;;;;;;6221563;28;20115;-75
2021/07/31 06:47:18;;;;;;;2.95;1.23;;;23.90;52.80;;;;;;6221282;28;20116;-75
2021/07/31 06:50:20;;;;;;;5.03;1.23;;;23.80;52.60;;;;;;6221497;28;20128;-75
2021/07/31 06:53:23;;;;;;;3.85;1.13;;;23.70;52.10;;;;;;6223504;28;20757;-75
2021/07/31 06:56:26;;;;;;;5.40;1.50;;;23.70;52.20;;;;;;6225637;28;20069;-75
2021/07/31 06:59:28;;;;;;;9.07;1.20;;;23.70;51.90;;;;;;6225686;28;20129;-75
2021/07/31 07:02:30;;;;;;;1.85;1.15;;;23.80;52.00;;;;;;6225728;28;20053;-75
2021/07/31 07:05:32;;;;;;;3.30;1.08;;;23.90;52.60;;;;;;6226139;28;20467;-75
2021/07/31 07:08:34;;;;;;;4.57;2.03;;;24.00;51.80;;;;;;6225362;28;20072;-75
2021/07/31 07:11:38;;;;;;;7.65;1.48;;;24.10;51.80;;;;;;6225383;28;20069;-75
2021/07/31 07:14:39;;;;;;;5.15;1.83;;;24.20;52.00;;;;;;6225390;28;20061;-75
2021/07/31 07:17:41;;;;;;;4.07;1.55;;;24.20;52.30;;;;;;6225629;28;20537;-75
2021/07/31 07:20:43;;;;;;;3.63;1.20;;;24.30;52.20;;;;;;6225158;28;20056;-75
2021/07/31 07:23:45;;;;;;;3.03;1.05;;;24.30;52.40;;;;;;6225361;28;20045;-76
2021/07/31 07:26:48;;;;;;;3.35;1.85;;;24.30;52.40;;;;;;6224853;28;20095;-75
2021/07/31 07:29:50;;;;;;;3.10;1.27;;;24.40;51.80;;;;;;6226294;28;20094;-75
2021/07/31 07:32:52;;;;;;;3.28;0.93;;;24.50;51.50;;;;;;6226262;28;20123;-75
2021/07/31 07:35:53;;;;;;;6.22;1.20;;;24.60;51.70;;;;;;6224602;28;20100;-75
2021/07/31 07:38:55;;;;;;;3.60;1.30;;;24.60;51.60;;;;;;6224821;28;20041;-76
2021/07/31 07:41:58;;;;;;;3.72;1.15;;;24.70;51.70;;;;;;6224800;28;20138;-76
2021/07/31 07:45:00;;;;;;;4.05;0.95;;;24.80;50.50;;;;;;6224911;28;20085;-74
2021/07/31 07:48:02;;;;;;;3.72;1.30;;;24.80;50.90;;;;;;6224113;28;20132;-74
2021/07/31 07:51:05;;;;;;;6.65;1.63;;;24.80;50.20;;;;;;6224544;28;20392;-74
2021/07/31 07:54:07;;;;;;;2.65;1.08;;;24.70;50.60;;;;;;6224766;28;20096;-74
2021/07/31 07:57:10;;;;;;;2.97;1.50;;;24.70;50.90;;;;;;6224274;28;20072;-74
2021/07/31 08:00:13;;;;;;;4.22;1.25;;;24.80;51.10;;;;;;6224212;28;20124;-74
2021/07/31 08:03:15;;;;;;;3.28;1.38;;;24.80;51.40;;;;;;6224308;28;20865;-74
2021/07/31 08:06:17;;;;;;;2.05;0.90;;;24.90;50.60;;;;;;6223428;28;20072;-74
2021/07/31 08:09:19;;;;;;;4.53;1.27;;;24.80;50.20;;;;;;6224426;28;20073;-75
2021/07/31 08:12:22;;;;;;;6.65;2.00;;;24.80;50.60;;;;;;6224239;28;20474;-74
2021/07/31 08:15:24;;;;;;;4.43;1.35;;;24.80;51.30;;;;;;6223858;28;20095;-74
2021/07/31 08:18:26;;;;;;;4.53;1.73;;;24.90;50.90;;;;;;6224164;28;20052;-75
2021/07/31 08:21:29;;;;;;;4.70;1.40;;;24.80;50.90;;;;;;6224040;28;20136;-73
2021/07/31 08:24:31;;;;;;;6.45;2.25;;;24.90;50.80;;;;;;6223886;28;20053;-74
2021/07/31 08:27:34;;;;;;;3.83;1.20;;;24.90;51.90;;;;;;6223522;28;20120;-74
2021/07/31 08:30:36;;;;;;;2.30;1.42;;;25.00;51.30;;;;;;6224049;28;20049;-74
2021/07/31 08:33:38;;;;;;;3.85;1.02;;;25.00;51.30;;;;;;6224412;28;20085;-75
2021/07/31 08:36:40;;;;;;;5.43;1.67;;;24.90;49.50;;;;;;6223320;28;20578;-74
2021/07/31 08:39:41;;;;;;;3.50;1.58;;;24.90;49.40;;;;;;6223614;28;20088;-74
2021/07/31 08:42:45;;;;;;;4.72;1.38;;;24.90;49.10;;;;;;6223953;28;20041;-74
2021/07/31 08:45:48;;;;;;;4.40;1.58;;;24.70;49.00;;;;;;6223748;28;20054;-76
2021/07/31 08:48:50;;;;;;;3.15;1.73;;;24.70;49.20;;;;;;6223113;28;20050;-76
2021/07/31 08:51:53;;;;;;;4.88;2.35;;;24.60;50.20;;;;;;6220483;28;20168;-74
2021/07/31 08:54:55;;;;;;;4.63;1.33;;;24.70;51.40;;;;;;6192964;28;20050;-74
2021/07/31 08:58:00;;;;;;;5.43;1.13;;;24.80;49.90;;;;;;6198092;28;20092;-74
2021/07/31 09:01:02;;;;;;;4.35;1.98;;;25.00;49.90;;;;;;6197438;28;20050;-74
2021/07/31 09:04:12;;;;;;;2.97;1.35;;;25.10;49.80;;;;;;6197640;28;20053;-74
2021/07/31 09:07:15;;;;;;;2.17;1.33;;;25.00;49.00;;;;;;6197557;28;20043;-74
2021/07/31 09:10:24;;;;;;;2.00;1.02;;;25.10;49.10;;;;;;6198227;28;20042;-74
2021/07/31 09:13:28;;;;;;;3.47;1.75;;;25.20;49.00;;;;;;6197914;28;20061;-75
2021/07/31 09:16:34;;;;;;;2.85;1.13;;;25.40;49.40;;;;;;6196925;28;20531;-75
2021/07/31 09:19:45;;;;;;;7.53;1.55;;;25.50;48.70;;;;;;6197176;28;21684;-75
2021/07/31 09:22:52;;;;;;;6.22;1.10;;;26.00;47.60;;;;;;6197588;28;20081;-74
2021/07/31 09:26:01;;;;;;;2.73;1.37;;;26.50;46.70;;;;;;6197427;28;20046;-74
2021/07/31 09:29:08;;;;;;;1.77;1.17;;;26.90;46.00;;;;;;6196912;28;20140;-75
2021/07/31 09:32:10;;;;;;;3.85;1.02;;;27.40;45.30;;;;;;6196977;28;20089;-75
2021/07/31 09:35:22;;;;;;;3.90;1.05;;;27.50;45.60;;;;;;6197286;28;20128;-75
2021/07/31 09:38:36;;;;;;;4.63;1.13;;;27.50;45.10;;;;;;6196683;28;20457;-75
2021/07/31 09:41:39;;;;;;;4.70;1.40;;;27.50;45.20;;;;;;6196667;28;20412;-75
2021/07/31 09:44:46;;;;;;;4.05;1.35;;;27.40;45.20;;;;;;6197058;28;20128;-74
2021/07/31 09:47:58;;;;;;;;;;;27.20;45.20;;;;;;6197010;28;20631;-74
2021/07/31 09:51:00;;;;;;;8.35;2.65;;;27.30;45.60;;;;;;6196874;28;19970;-73
2021/07/31 09:54:05;;;;;;;5.20;1.20;;;27.40;45.50;;;;;;6195719;28;20100;-73
2021/07/31 09:57:07;;;;;;;6.00;1.42;;;27.40;44.40;;;;;;6194624;28;20181;-73
2021/07/31 10:00:12;;;;;;;3.80;1.15;;;27.40;44.10;;;;;;6196777;28;20125;-74
2021/07/31 10:03:15;;;;;;;4.82;1.90;;;27.40;44.90;;;;;;6196862;28;20073;-75
2021/07/31 10:06:17;;;;;;;3.30;1.50;;;27.30;44.30;;;;;;6196728;28;20050;-73
2021/07/31 10:09:19;;;;;;;4.47;2.63;;;27.20;44.60;;;;;;6196530;28;20194;-73
2021/07/31 10:12:26;;;;;;;4.60;1.08;;;27.20;44.80;;;;;;6196827;28;20524;-73
2021/07/31 10:15:29;;;;;;;6.13;1.70;;;27.30;45.50;;;;;;6172550;28;20047;-74
2021/07/31 10:18:31;;;;;;;4.22;1.08;;;27.50;45.20;;;;;;6172222;28;20528;-73
2021/07/31 10:21:36;;;;;;;4.90;1.15;;;27.50;44.20;;;;;;6172382;28;20046;-73
2021/07/31 10:25:07;;;;;;;4.90;2.10;;;27.60;44.60;;;;;;6191867;28;20120;-73
2021/07/31 10:28:28;;;;;;;5.00;1.45;;;27.50;44.40;;;;;;6197470;28;20050;-74
2021/07/31 10:31:32;;;;;;;2.95;1.17;;;27.60;44.10;;;;;;6200820;28;20038;-75
2021/07/31 10:34:47;;;;;;;3.10;0.77;;;27.60;44.00;;;;;;6201098;28;20141;-74
2021/07/31 10:37:50;;;;;;;7.20;1.45;;;27.80;43.90;;;;;;6201022;28;20050;-73
2021/07/31 10:40:52;;;;;;;7.75;2.40;;;27.90;43.60;;;;;;6200486;28;20129;-75
2021/07/31 10:44:09;;;;;;;2.25;0.95;;;27.90;43.70;;;;;;6201063;28;20047;-73
2021/07/31 10:47:40;;;;;;;2.83;1.52;;;28.20;44.10;;;;;;6200603;28;20050;-75
2021/07/31 10:50:42;;;;;;;4.20;1.88;;;28.20;43.30;;;;;;6200879;28;20050;-73
2021/07/31 10:53:51;;;;;;;3.60;1.20;;;27.90;44.00;;;;;;6200401;28;20132;-74
2021/07/31 10:56:59;;;;;;;4.30;2.25;;;27.90;44.10;;;;;;6198681;28;20057;-73
2021/07/31 11:00:22;;;;;;;5.05;1.30;;;27.90;43.90;;;;;;6200330;28;20053;-76
2021/07/31 11:03:42;;;;;;;2.72;1.20;;;27.70;43.80;;;;;;6200316;28;20054;-73
2021/07/31 11:07:08;;;;;;;2.25;1.60;;;27.40;44.30;;;;;;6200604;28;20125;-74
2021/07/31 11:10:33;;;;;;;2.75;1.52;;;26.90;44.70;;;;;;6200814;28;20050;-73
2021/07/31 11:13:52;;;;;;;5.35;1.95;;;26.80;45.70;;;;;;6200521;28;20089;-74
2021/07/31 11:17:18;;;;;;;4.78;1.80;;;26.80;45.90;;;;;;6199883;28;20701;-73
2021/07/31 11:20:33;;;;;;;2.47;1.23;;;26.70;45.80;;;;;;6199913;28;20105;-73
2021/07/31 11:23:40;;;;;;;5.47;1.10;;;26.70;46.10;;;;;;6200258;28;20180;-74
2021/07/31 11:26:45;;;;;;;7.60;1.33;;;26.90;45.70;;;;;;6199689;28;20092;-73
2021/07/31 11:29:54;;;;;;;6.82;1.55;;;26.90;46.10;;;;;;6200779;28;20189;-73
2021/07/31 11:32:55;;;;;;;4.30;1.58;;;26.80;45.80;;;;;;6199618;28;20057;-74
2021/07/31 11:36:11;;;;;;;3.85;1.02;;;26.70;46.10;;;;;;6199652;28;20128;-74
2021/07/31 11:39:13;;;;;;;5.93;1.42;;;26.80;45.80;;;;;;6198185;28;20042;-75
2021/07/31 11:42:20;;;;;;;4.47;1.42;;;27.00;45.80;;;;;;6199781;28;20519;-74
2021/07/31 11:45:23;;;;;;;2.80;2.30;;;27.20;45.00;;;;;;6224206;28;20080;-75
2021/07/31 11:48:25;;;;;;;3.78;1.60;;;27.40;45.60;;;;;;6223735;28;20054;-73
2021/07/31 11:51:28;;;;;;;3.45;1.45;;;27.50;44.80;;;;;;6224002;28;20132;-74
2021/07/31 11:54:31;;;;;;;4.90;1.65;;;27.50;45.00;;;;;;6224472;28;20085;-73
2021/07/31 11:57:33;;;;;;;3.40;1.08;;;27.80;43.70;;;;;;6222199;28;20128;-74
2021/07/31 12:00:37;;;;;;;5.72;0.93;;;28.10;44.40;;;;;;6223327;28;20046;-74
2021/07/31 12:03:46;;;;;;;2.00;1.23;;;28.40;42.30;;;;;;6223376;28;20782;-74
2021/07/31 12:06:51;;;;;;;2.58;1.05;;;28.60;42.20;;;;;;6223487;28;20069;-75
2021/07/31 12:10:00;;;;;;;3.95;1.45;;;28.70;41.80;;;;;;6224699;28;20063;-73
2021/07/31 12:13:09;;;;;;;3.92;1.13;;;28.80;42.00;;;;;;6224053;28;20398;-74
2021/07/31 12:16:11;;;;;;;4.82;1.20;;;29.10;41.50;;;;;;6222886;28;20050;-74
2021/07/31 12:19:13;;;;;;;2.63;1.08;;;29.30;41.40;;;;;;6222991;28;20128;-74
2021/07/31 12:22:18;;;;;;;3.45;1.10;;;29.30;39.70;;;;;;6222973;28;20049;-74
2021/07/31 12:25:22;;;;;;;4.05;1.48;;;29.30;39.70;;;;;;6223033;28;20042;-75
2021/07/31 12:28:37;;;;;;;2.30;1.00;;;29.40;39.70;;;;;;6222325;28;20104;-74
2021/07/31 12:31:39;;;;;;;2.95;1.55;;;29.30;39.50;;;;;;6222321;28;20050;-74
2021/07/31 12:34:41;;;;;;;6.43;1.15;;;29.30;39.80;;;;;;6222849;28;20143;-74
2021/07/31 12:37:49;;;;;;;3.58;1.05;;;29.40;39.70;;;;;;6222436;28;20532;-75
2021/07/31 12:40:54;;;;;;;2.10;1.13;;;29.50;39.20;;;;;;6222469;28;20091;-74
2021/07/31 12:43:55;;;;;;;3.33;1.65;;;29.50;38.90;;;;;;6222150;28;20049;-75
2021/07/31 12:46:57;;;;;;;3.72;1.27;;;29.60;39.20;;;;;;6221979;28;20589;-75
2021/07/31 12:49:59;;;;;;;3.08;1.63;;;29.70;39.30;;;;;;6222714;28;20276;-74
2021/07/31 12:53:02;;;;;;;5.68;1.60;;;29.70;39.10;;;;;;6222119;28;20054;-74
2021/07/31 12:56:04;;;;;;;4.47;1.20;;;29.70;38.70;;;;;;6221575;28;20427;-74
2021/07/31 12:59:06;;;;;;;2.97;2.67;;;29.50;38.80;;;;;;6220200;28;20045;-75
2021/07/31 13:02:08;;;;;;;4.35;1.35;;;29.40;39.20;;;;;;6220340;28;20056;-75
2021/07/31 13:05:11;;;;;;;7.05;2.65;;;29.50;39.40;;;;;;6223055;28;20041;-74
2021/07/31 13:08:15;;;;;;;5.15;1.40;;;29.50;39.60;;;;;;6222546;28;20081;-74
2021/07/31 13:11:17;;;;;;;3.08;1.10;;;29.60;40.00;;;;;;6222079;28;20045;-75
2021/07/31 13:14:19;;;;;;;3.20;1.10;;;29.60;40.30;;;;;;6222269;28;20129;-75
2021/07/31 13:17:21;;;;;;;4.63;1.40;;;29.60;39.70;;;;;;6222037;28;20136;-75
2021/07/31 13:20:23;;;;;;;4.82;2.03;;;29.70;40.60;;;;;;6222584;28;20177;-75
2021/07/31 13:23:26;;;;;;;4.82;1.38;;;29.60;40.30;;;;;;6222177;28;20046;-75
2021/07/31 13:26:30;;;;;;;1.85;1.20;;;29.70;41.40;;;;;;6222124;28;20052;-75
2021/07/31 13:29:31;;;;;;;3.30;0.93;;;29.90;40.30;;;;;;6222211;28;20103;-75
2021/07/31 13:32:33;;;;;;;3.90;2.08;;;29.80;40.20;;;;;;6222013;28;20046;-76
2021/07/31 13:35:37;;;;;;;2.67;1.42;;;29.80;39.80;;;;;;6221799;28;20177;-74
2021/07/31 13:38:47;;;;;;;3.15;1.40;;;29.80;39.80;;;;;;6222249;28;20053;-76
2021/07/31 13:41:49;;;;;;;5.85;1.35;;;29.60;40.60;;;;;;6222316;28;20053;-76
2021/07/31 13:44:51;;;;;;;3.30;1.27;;;29.60;40.60;;;;;;6221951;28;20050;-74
2021/07/31 13:47:53;;;;;;;4.07;1.50;;;29.90;39.70;;;;;;6221647;28;20058;-75
2021/07/31 13:50:55;;;;;;;2.25;1.13;;;30.00;40.10;;;;;;6221816;28;20120;-74
2021/07/31 13:53:58;;;;;;;6.72;1.63;;;30.10;39.90;;;;;;6222235;28;20049;-75
2021/07/31 13:57:00;;;;;;;2.47;1.40;;;30.20;40.20;;;;;;6221488;28;20416;-75
2021/07/31 14:00:03;;;;;;;3.90;1.35;;;30.30;39.30;;;;;;6219874;28;20042;-75
2021/07/31 14:03:06;;;;;;;4.90;1.90;;;30.50;38.90;;;;;;6220413;28;20041;-74
2021/07/31 14:06:08;;;;;;;3.80;2.55;;;30.60;38.60;;;;;;6222123;28;20141;-76
2021/07/31 14:09:11;;;;;;;3.55;0.98;;;30.60;38.70;;;;;;6221375;28;20569;-74
2021/07/31 14:12:13;;;;;;;2.88;1.20;;;30.80;38.70;;;;;;6221722;28;20100;-74
2021/07/31 14:15:14;;;;;;;3.40;1.30;;;30.80;38.80;;;;;;6221125;28;20042;-75
2021/07/31 14:18:16;;;;;;;3.83;1.35;;;30.80;38.20;;;;;;6221980;28;20135;-76
2021/07/31 14:21:18;;;;;;;6.70;2.10;;;30.80;39.00;;;;;;6221055;28;20177;-75
2021/07/31 14:24:21;;;;;;;5.28;1.42;;;30.70;38.30;;;;;;6221709;28;20070;-75
2021/07/31 14:27:23;;;;;;;4.65;1.58;;;30.70;38.70;;;;;;6219691;28;20475;-76
2021/07/31 14:30:25;;;;;;;6.22;2.25;;;30.60;38.70;;;;;;6221309;28;20050;-75
2021/07/31 14:33:27;;;;;;;3.45;1.30;;;30.50;39.70;;;;;;6221636;28;20529;-75
2021/07/31 14:36:29;;;;;;;3.63;1.42;;;30.40;38.70;;;;;;6220894;28;20534;-75
2021/07/31 14:39:34;;;;;;;2.90;1.48;;;30.20;39.00;;;;;;6221337;28;20045;-74
2021/07/31 14:42:36;;;;;;;5.05;1.25;;;30.20;39.60;;;;;;6221420;28;20183;-74
2021/07/31 14:45:38;;;;;;;2.63;1.00;;;30.00;38.80;;;;;;6221714;28;20050;-75
2021/07/31 14:48:40;;;;;;;7.32;1.67;;;29.80;38.90;;;;;;6221027;28;20053;-74
2021/07/31 14:51:42;;;;;;;5.00;1.33;;;29.50;39.30;;;;;;6221178;28;20180;-74
2021/07/31 14:54:45;;;;;;;2.08;1.40;;;29.30;40.10;;;;;;6220950;28;20049;-74
2021/07/31 14:57:47;;;;;;;4.93;2.15;;;29.20;40.60;;;;;;6221350;28;20104;-75
2021/07/31 15:00:49;;;;;;;4.25;2.22;;;29.20;40.40;;;;;;6214957;28;20190;-74
2021/07/31 15:03:51;;;;;;;2.42;1.52;;;29.10;40.00;;;;;;6196538;28;20089;-75
2021/07/31 15:06:52;;;;;;;5.47;2.00;;;29.00;39.60;;;;;;6196488;28;20164;-75
2021/07/31 15:09:56;;;;;;;2.55;1.70;;;28.90;39.40;;;;;;6197232;28;20178;-75
2021/07/31 15:12:57;;;;;;;3.58;1.52;;;28.70;39.20;;;;;;6201165;28;20589;-74
2021/07/31 15:16:00;;;;;;;6.10;1.45;;;28.60;40.50;;;;;;6224767;28;20585;-75
2021/07/31 15:19:02;;;;;;;10.02;2.33;;;28.50;41.10;;;;;;6225242;28;20116;-75
2021/07/31 15:22:04;;;;;;;3.50;1.17;;;28.40;41.30;;;;;;6225193;28;20145;-77
2021/07/31 15:25:08;;;;;;;2.67;1.00;;;28.30;41.00;;;;;;6225252;28;20054;-76
2021/07/31 15:28:10;;;;;;;5.28;1.63;;;28.10;41.50;;;;;;6224757;28;20430;-75
2021/07/31 15:31:14;;;;;;;2.88;1.58;;;28.00;42.30;;;;;;6224847;28;20124;-76
2021/07/31 15:34:16;;;;;;;2.53;1.10;;;27.80;42.90;;;;;;6225579;28;20049;-75
2021/07/31 15:37:18;;;;;;;4.78;2.20;;;27.70;43.30;;;;;;6224506;28;20176;-75
2021/07/31 15:40:21;;;;;;;2.60;1.90;;;27.60;44.20;;;;;;6224882;28;20056;-76
2021/07/31 15:43:23;;;;;;;4.75;1.85;;;27.60;44.90;;;;;;6224450;28;20037;-76
2021/07/31 15:46:26;;;;;;;5.22;1.20;;;27.70;44.30;;;;;;6224746;28;20165;-76
2021/07/31 15:49:27;;;;;;;5.68;1.63;;;27.80;44.60;;;;;;6224584;28;20511;-76
2021/07/31 15:52:29;;;;;;;3.33;2.05;;;27.80;44.00;;;;;;6224542;28;20062;-77
2021/07/31 15:55:32;;;;;;;3.95;1.67;;;27.90;43.70;;;;;;6224324;28;20054;-76